Time;durP1;ratioP1;P1;durP2;ratioP2;P2;SDS_P1;SDS_P2;PMS_P1;PMS_P2;Temp;Humidity;BMP_temperature;BMP_pressure;BME280_temperature;BME280_humidity;BME280_pressure;Samples;Min_cycle;Max_cycle;Signal;HPM_P1;HPM_P2
2022/12/07 00:01:25;;;;;;;28.73;16.60;;;8.10;63.10;;;;;;4996745;28;20520;-56
2022/12/07 00:03:54;;;;;;;26.05;15.13;;;8.10;63.20;;;;;;4998545;28;20058;-56
2022/12/07 00:06:22;;;;;;;25.10;15.57;;;8.10;63.20;;;;;;4998974;28;20061;-56
2022/12/07 00:08:49;;;;;;;26.95;15.98;;;8.10;63.30;;;;;;4995358;28;20054;-51
2022/12/07 00:11:21;;;;;;;26.52;16.58;;;8.10;63.40;;;;;;4985714;28;20054;-56
2022/12/07 00:13:51;;;;;;;25.05;15.27;;;8.10;63.40;;;;;;4990330;28;20054;-50
2022/12/07 00:16:20;;;;;;;24.88;16.20;;;8.10;63.50;;;;;;4999608;28;20058;-54
2022/12/07 00:18:48;;;;;;;27.75;17.73;;;8.10;63.50;;;;;;5000381;28;20054;-55
2022/12/07 00:21:18;;;;;;;30.50;17.83;;;8.10;63.60;;;;;;4988783;28;20513;-56
2022/12/07 00:23:47;;;;;;;27.98;17.75;;;8.10;63.60;;;;;;5002859;28;20382;-55
2022/12/07 00:26:17;;;;;;;26.00;16.52;;;8.10;63.60;;;;;;5000920;28;20058;-56
2022/12/07 00:28:48;;;;;;;31.63;18.00;;;8.20;63.70;;;;;;4996750;28;21315;-54
2022/12/07 00:31:16;;;;;;;30.63;19.17;;;8.10;63.70;;;;;;4997072;28;20501;-55
2022/12/07 00:33:43;;;;;;;27.10;18.25;;;8.20;63.80;;;;;;5003195;28;20057;-51
2022/12/07 00:36:12;;;;;;;28.67;18.58;;;8.10;63.70;;;;;;5001630;28;20478;-54
2022/12/07 00:38:40;;;;;;;32.50;18.52;;;8.20;64.50;;;;;;5002643;28;20053;-56
2022/12/07 00:41:11;;;;;;;36.88;18.48;;;8.10;63.80;;;;;;5000934;28;20509;-51
2022/12/07 00:43:39;;;;;;;32.38;19.80;;;8.20;63.90;;;;;;5001110;28;20055;-55
2022/12/07 00:46:08;;;;;;;37.92;21.83;;;8.20;63.90;;;;;;5002065;28;20501;-55
2022/12/07 00:48:35;;;;;;;36.03;21.55;;;8.10;63.80;;;;;;5002933;28;20045;-55
2022/12/07 00:51:03;;;;;;;33.97;21.08;;;8.20;63.90;;;;;;4986047;28;20054;-55
2022/12/07 00:53:31;;;;;;;32.13;19.92;;;8.20;63.90;;;;;;5004542;28;21206;-56
2022/12/07 00:55:58;;;;;;;39.75;23.75;;;8.20;63.90;;;;;;5005362;28;20068;-56
2022/12/07 00:58:25;;;;;;;40.75;22.77;;;8.20;64.00;;;;;;5003983;28;20395;-54
2022/12/07 01:00:52;;;;;;;31.67;20.15;;;8.20;64.00;;;;;;4998050;28;20062;-55
2022/12/07 01:03:21;;;;;;;33.30;21.20;;;8.20;64.00;;;;;;5002181;28;20131;-54
2022/12/07 01:05:52;;;;;;;35.13;21.60;;;8.20;64.00;;;;;;5000416;28;20053;-53
2022/12/07 01:08:20;;;;;;;38.75;22.33;;;8.20;64.10;;;;;;5004772;28;20054;-55
2022/12/07 01:10:47;;;;;;;35.15;21.65;;;8.20;64.10;;;;;;4993978;28;20493;-55
2022/12/07 01:13:15;;;;;;;35.97;22.73;;;8.20;64.20;;;;;;5001508;28;20516;-55
2022/12/07 01:15:43;;;;;;;36.20;22.63;;;8.20;64.20;;;;;;5001932;28;20421;-51
2022/12/07 01:18:11;;;;;;;40.45;21.67;;;8.20;64.20;;;;;;5002688;28;20062;-55
2022/12/07 01:20:40;;;;;;;38.45;20.83;;;8.20;64.30;;;;;;4994417;28;20058;-55
2022/12/07 01:23:07;;;;;;;36.65;22.60;;;8.20;64.30;;;;;;5005114;28;20061;-55
2022/12/07 01:25:34;;;;;;;38.78;24.20;;;8.20;64.30;;;;;;5004299;28;20054;-55
2022/12/07 01:28:01;;;;;;;40.60;22.08;;;8.20;64.30;;;;;;5002582;28;20058;-54
2022/12/07 01:30:29;;;;;;;36.50;23.73;;;8.20;64.30;;;;;;4996631;28;20058;-55
2022/12/07 01:32:56;;;;;;;39.85;23.35;;;8.20;64.30;;;;;;5002712;28;20493;-56
2022/12/07 01:35:23;;;;;;;42.47;22.35;;;8.20;64.30;;;;;;4999433;28;20066;-55
2022/12/07 01:37:52;;;;;;;41.50;22.67;;;8.20;64.30;;;;;;5003432;28;20111;-56
2022/12/07 01:40:19;;;;;;;35.17;22.77;;;8.20;64.40;;;;;;4998005;28;20046;-54
2022/12/07 01:42:46;;;;;;;41.20;24.23;;;8.30;64.50;;;;;;4997289;28;20057;-53
2022/12/07 01:45:38;;;;;;;34.63;22.95;;;8.30;64.50;;;;;;5001483;28;20062;-53
2022/12/07 01:48:07;;;;;;;40.28;23.63;;;8.30;64.50;;;;;;4995275;28;20054;-56
2022/12/07 01:50:35;;;;;;;33.95;22.27;;;8.30;64.40;;;;;;4994461;28;20054;-51
2022/12/07 01:53:07;;;;;;;38.33;23.50;;;8.30;64.40;;;;;;5003831;28;20513;-55
2022/12/07 01:55:38;;;;;;;38.53;24.15;;;8.30;64.50;;;;;;4997206;28;20413;-55
2022/12/07 01:58:05;;;;;;;36.03;23.80;;;8.30;64.50;;;;;;5002136;28;20053;-49
2022/12/07 02:00:32;;;;;;;38.03;23.48;;;8.30;64.40;;;;;;4992732;28;20069;-55
2022/12/07 02:03:06;;;;;;;38.63;23.52;;;8.30;64.40;;;;;;5000523;28;20062;-56
2022/12/07 02:05:35;;;;;;;39.13;23.57;;;8.30;64.40;;;;;;4995433;28;20049;-55
2022/12/07 02:08:04;;;;;;;34.53;21.85;;;8.30;64.40;;;;;;5003282;28;20061;-51
2022/12/07 02:10:33;;;;;;;38.22;22.20;;;8.30;64.40;;;;;;4993624;28;20536;-56
2022/12/07 02:13:05;;;;;;;46.45;24.00;;;8.30;64.50;;;;;;5002257;28;20426;-49
2022/12/07 02:15:45;;;;;;;37.78;22.92;;;8.30;64.50;;;;;;5003589;28;20065;-55
2022/12/07 02:18:21;;;;;;;43.03;23.85;;;8.30;64.60;;;;;;4999445;28;20510;-55
2022/12/07 02:20:56;;;;;;;37.13;23.27;;;8.30;64.60;;;;;;4992352;28;20054;-51
2022/12/07 02:23:46;;;;;;;41.22;24.23;;;8.30;64.60;;;;;;5003989;28;20062;-57
2022/12/07 02:26:40;;;;;;;41.22;24.77;;;8.30;64.60;;;;;;4997964;28;20061;-55
2022/12/07 02:29:18;;;;;;;43.67;24.98;;;8.30;64.60;;;;;;4998470;28;20076;-55
2022/12/07 02:31:50;;;;;;;40.05;25.13;;;8.30;64.60;;;;;;4996000;28;20057;-56
2022/12/07 02:34:25;;;;;;;38.55;25.27;;;8.30;64.60;;;;;;5000235;28;20046;-56
2022/12/07 02:36:57;;;;;;;41.33;25.45;;;8.30;64.70;;;;;;4993077;28;20073;-56
2022/12/07 02:39:32;;;;;;;46.75;28.08;;;8.30;64.70;;;;;;4991248;28;20065;-53
2022/12/07 02:42:08;;;;;;;44.35;27.02;;;8.30;64.70;;;;;;4993630;28;20070;-54
2022/12/07 02:44:37;;;;;;;44.78;25.65;;;8.30;64.70;;;;;;5003653;28;20061;-56
2022/12/07 02:47:09;;;;;;;42.92;26.90;;;8.20;64.80;;;;;;5001537;28;20064;-46
2022/12/07 02:49:39;;;;;;;45.80;27.27;;;8.30;64.90;;;;;;4994883;28;20049;-54
2022/12/07 02:52:06;;;;;;;46.92;26.90;;;8.30;65.00;;;;;;4986534;28;20058;-56
2022/12/07 02:54:34;;;;;;;42.67;26.90;;;8.30;65.10;;;;;;4999652;28;20073;-50
2022/12/07 02:57:12;;;;;;;42.03;25.08;;;8.30;65.00;;;;;;4998381;28;20058;-55
2022/12/07 02:59:56;;;;;;;39.67;26.38;;;8.30;65.20;;;;;;4999141;28;20053;-55
2022/12/07 03:02:29;;;;;;;50.25;28.73;;;8.30;65.10;;;;;;4993035;28;20061;-55
2022/12/07 03:05:13;;;;;;;45.70;27.45;;;8.30;65.00;;;;;;4994460;28;20050;-52
2022/12/07 03:07:52;;;;;;;45.30;27.65;;;8.30;65.00;;;;;;5001695;28;20132;-50
2022/12/07 03:10:27;;;;;;;41.45;26.60;;;8.30;65.00;;;;;;4993715;28;20989;-55
2022/12/07 03:13:03;;;;;;;39.20;25.67;;;8.30;65.00;;;;;;5000153;28;20065;-55
2022/12/07 03:15:35;;;;;;;37.70;24.80;;;8.30;65.00;;;;;;5000049;28;20050;-53
2022/12/07 03:18:05;;;;;;;38.55;25.15;;;8.30;65.10;;;;;;5001713;28;20057;-56
2022/12/07 03:20:36;;;;;;;37.60;24.77;;;8.30;65.10;;;;;;4991587;28;20050;-52
2022/12/07 03:23:06;;;;;;;39.10;24.45;;;8.30;65.00;;;;;;4998077;28;20057;-50
2022/12/07 03:25:36;;;;;;;45.38;25.40;;;8.30;65.10;;;;;;5001574;28;20046;-53
2022/12/07 03:28:06;;;;;;;40.95;25.55;;;8.40;65.20;;;;;;4999124;28;20066;-56
2022/12/07 03:30:42;;;;;;;35.17;23.17;;;8.40;65.10;;;;;;4993027;28;20263;-48
2022/12/07 03:33:14;;;;;;;38.67;24.10;;;8.40;65.20;;;;;;4992666;28;20058;-54
2022/12/07 03:35:44;;;;;;;37.72;24.77;;;8.40;65.20;;;;;;4994767;28;20061;-56
2022/12/07 03:38:18;;;;;;;39.60;24.77;;;8.40;65.10;;;;;;4993691;28;20983;-55
2022/12/07 03:40:50;;;;;;;41.53;27.30;;;8.40;65.10;;;;;;4987095;28;20050;-56
2022/12/07 03:43:19;;;;;;;39.75;26.05;;;8.40;65.00;;;;;;4999280;28;20049;-55
2022/12/07 03:46:00;;;;;;;44.75;25.30;;;8.40;65.00;;;;;;5000864;28;20050;-56
2022/12/07 03:48:33;;;;;;;36.80;24.48;;;8.40;65.70;;;;;;4989318;28;20635;-45
2022/12/07 03:51:07;;;;;;;43.70;26.58;;;8.40;65.00;;;;;;4989205;28;20051;-48
2022/12/07 03:53:36;;;;;;;;;;;8.40;65.00;;;;;;5001843;28;20505;-48
2022/12/07 03:56:04;;;;;;;38.20;24.52;;;8.50;65.20;;;;;;5002143;28;19928;-44
2022/12/07 03:58:32;;;;;;;38.00;25.20;;;8.50;64.90;;;;;;5002487;28;20080;-50
2022/12/07 04:01:00;;;;;;;41.50;25.70;;;8.50;64.90;;;;;;5001282;28;20054;-47
2022/12/07 04:03:27;;;;;;;45.53;26.60;;;8.50;65.00;;;;;;4998205;28;20054;-49
2022/12/07 04:05:55;;;;;;;41.60;26.40;;;8.40;65.10;;;;;;4994300;28;20505;-48
2022/12/07 04:08:22;;;;;;;39.97;25.17;;;8.50;65.10;;;;;;5004633;28;20062;-45
2022/12/07 04:10:50;;;;;;;37.97;25.55;;;8.50;65.10;;;;;;5001270;28;21136;-45
2022/12/07 04:13:17;;;;;;;44.50;25.25;;;8.50;65.10;;;;;;5005381;28;20062;-43
2022/12/07 04:15:44;;;;;;;37.90;24.30;;;8.50;65.10;;;;;;5002636;28;20072;-46
2022/12/07 04:18:13;;;;;;;40.20;24.85;;;8.50;65.10;;;;;;5002148;28;20058;-45
2022/12/07 04:20:41;;;;;;;43.45;26.10;;;8.40;65.10;;;;;;4995141;28;20510;-47
2022/12/07 04:23:08;;;;;;;50.42;26.95;;;8.40;65.10;;;;;;5005696;28;20061;-46
2022/12/07 04:25:35;;;;;;;37.28;24.75;;;8.40;65.20;;;;;;5004162;28;20046;-47
2022/12/07 04:28:02;;;;;;;37.80;25.83;;;8.40;65.20;;;;;;4995436;28;20049;-48
2022/12/07 04:30:30;;;;;;;37.05;24.23;;;8.40;65.30;;;;;;4998133;28;20054;-47
2022/12/07 04:32:57;;;;;;;36.67;22.30;;;8.30;65.30;;;;;;5004516;28;20066;-49
2022/12/07 04:35:25;;;;;;;40.90;25.63;;;8.30;65.50;;;;;;4995319;28;20062;-51
2022/12/07 04:37:53;;;;;;;42.83;25.10;;;8.30;65.60;;;;;;4999621;28;20413;-44
2022/12/07 04:40:20;;;;;;;44.42;26.92;;;8.30;65.60;;;;;;4999953;28;20567;-48
2022/12/07 04:42:47;;;;;;;35.55;23.70;;;8.30;65.70;;;;;;4988407;28;20445;-46
2022/12/07 04:45:14;;;;;;;40.38;23.60;;;8.20;65.80;;;;;;5002792;28;20501;-47
2022/12/07 04:47:41;;;;;;;42.45;25.75;;;8.20;65.90;;;;;;4992917;28;20065;-48
2022/12/07 04:50:11;;;;;;;37.55;24.83;;;8.20;65.90;;;;;;4986879;28;20050;-48
2022/12/07 04:52:39;;;;;;;42.90;26.27;;;8.20;66.00;;;;;;5002801;28;20050;-50
2022/12/07 04:55:07;;;;;;;47.20;28.38;;;8.20;66.10;;;;;;5005227;28;20057;-49
2022/12/07 04:57:35;;;;;;;47.88;28.05;;;8.20;66.10;;;;;;5005089;28;20065;-45
2022/12/07 05:00:02;;;;;;;45.83;28.13;;;8.20;66.20;;;;;;5001815;28;20058;-45
2022/12/07 05:02:29;;;;;;;45.50;27.15;;;8.20;66.30;;;;;;4994262;28;20057;-47
2022/12/07 05:04:56;;;;;;;46.03;26.75;;;8.20;66.30;;;;;;4987882;28;20069;-48
2022/12/07 05:07:24;;;;;;;45.03;25.63;;;8.20;66.40;;;;;;5003447;28;20061;-46
2022/12/07 05:09:52;;;;;;;42.58;26.63;;;8.10;66.50;;;;;;5000657;28;20050;-43
2022/12/07 05:12:19;;;;;;;44.50;27.08;;;8.10;66.50;;;;;;4994877;28;20050;-49
2022/12/07 05:14:47;;;;;;;44.90;25.58;;;8.20;66.60;;;;;;4989399;28;20077;-51
2022/12/07 05:17:14;;;;;;;29.95;20.42;;;8.10;66.60;;;;;;4982980;28;20058;-49
2022/12/07 05:19:41;;;;;;;31.15;20.75;;;8.10;66.60;;;;;;5002708;28;20077;-48
2022/12/07 05:22:09;;;;;;;29.95;21.35;;;8.10;66.50;;;;;;4995165;28;20058;-47
2022/12/07 05:24:36;;;;;;;34.08;20.90;;;8.10;66.50;;;;;;5005205;28;20073;-51
2022/12/07 05:27:05;;;;;;;32.55;19.80;;;8.10;66.50;;;;;;5003657;28;20057;-50
2022/12/07 05:29:32;;;;;;;33.35;19.67;;;8.10;66.50;;;;;;4998962;28;20049;-47
2022/12/07 05:31:59;;;;;;;31.73;20.17;;;8.10;66.60;;;;;;4996661;28;20058;-49
2022/12/07 05:34:27;;;;;;;35.13;21.52;;;8.10;66.80;;;;;;5002258;28;20978;-46
2022/12/07 05:36:54;;;;;;;31.38;21.60;;;8.10;66.90;;;;;;5001451;28;20049;-48
2022/12/07 05:39:21;;;;;;;36.40;24.67;;;8.10;66.80;;;;;;4989888;28;21184;-46
2022/12/07 05:44:35;;;;;;;44.05;27.58;;;8.10;66.80;;;;;;5000112;28;20053;-49
2022/12/07 05:47:02;;;;;;;39.67;25.90;;;8.10;66.80;;;;;;5002134;28;20096;-51
2022/12/07 05:49:29;;;;;;;42.70;26.63;;;8.10;66.90;;;;;;5002356;28;20054;-50
2022/12/07 05:51:56;;;;;;;47.22;27.23;;;8.10;66.90;;;;;;4987775;28;20049;-49
2022/12/07 05:54:23;;;;;;;48.10;29.52;;;8.10;66.90;;;;;;4994646;28;20050;-47
2022/12/07 05:56:51;;;;;;;48.38;29.33;;;8.10;66.90;;;;;;5002207;28;20516;-48
2022/12/07 05:59:23;;;;;;;46.47;27.35;;;8.10;66.90;;;;;;5002264;28;20056;-46
2022/12/07 06:01:53;;;;;;;46.33;26.95;;;8.10;66.90;;;;;;4993845;28;20402;-47
2022/12/07 06:04:21;;;;;;;46.83;27.17;;;8.10;66.90;;;;;;4994646;28;20064;-46
2022/12/07 06:06:49;;;;;;;48.78;28.30;;;8.10;66.90;;;;;;4991255;28;20064;-49
2022/12/07 06:09:16;;;;;;;46.83;29.25;;;8.10;66.90;;;;;;4993473;28;20586;-50
2022/12/07 06:14:28;;;;;;;37.95;22.80;;;8.10;66.90;;;;;;4999339;28;20061;-47
2022/12/07 06:16:56;;;;;;;36.38;22.52;;;8.20;66.90;;;;;;5003890;28;20062;-47
2022/12/07 06:19:24;;;;;;;46.92;24.80;;;8.10;66.70;;;;;;4997337;28;20438;-50
2022/12/07 06:21:51;;;;;;;41.92;24.33;;;8.10;66.60;;;;;;4988079;28;20501;-48
2022/12/07 06:24:19;;;;;;;44.95;26.58;;;8.10;66.40;;;;;;5000669;28;20057;-48
2022/12/07 06:26:46;;;;;;;40.05;23.50;;;8.10;66.40;;;;;;5002971;28;20065;-51
2022/12/07 06:29:14;;;;;;;46.85;26.60;;;8.10;66.50;;;;;;4999617;28;20049;-47
2022/12/07 06:31:42;;;;;;;41.35;24.30;;;8.10;66.60;;;;;;4989700;28;20061;-49
2022/12/07 06:34:13;;;;;;;38.15;23.35;;;8.10;66.60;;;;;;4999254;28;20054;-49
2022/12/07 06:36:41;;;;;;;47.15;25.80;;;8.10;66.60;;;;;;4997768;28;20057;-42
2022/12/07 06:39:09;;;;;;;39.85;24.27;;;8.20;66.60;;;;;;4999346;28;20065;-49
2022/12/07 06:41:37;;;;;;;41.67;23.80;;;8.10;66.50;;;;;;4995046;28;20045;-47
2022/12/07 06:44:05;;;;;;;35.15;22.33;;;8.20;66.60;;;;;;4998433;28;20065;-45
2022/12/07 06:46:32;;;;;;;36.83;21.58;;;8.20;66.40;;;;;;4995689;28;20042;-46
2022/12/07 06:48:59;;;;;;;28.17;17.58;;;8.20;66.40;;;;;;5001390;28;20398;-48
2022/12/07 06:51:28;;;;;;;28.23;17.10;;;8.20;66.20;;;;;;4984891;28;20053;-49
2022/12/07 06:53:56;;;;;;;25.23;15.25;;;8.20;66.20;;;;;;4996798;28;20054;-50
2022/12/07 06:56:23;;;;;;;24.55;14.20;;;8.20;66.00;;;;;;4992477;28;20054;-48
2022/12/07 06:58:51;;;;;;;23.67;14.07;;;8.20;65.60;;;;;;4973891;28;20061;-49
2022/12/07 07:01:19;;;;;;;22.52;13.65;;;8.20;65.30;;;;;;4983473;28;20065;-51
2022/12/07 07:03:47;;;;;;;26.15;14.30;;;8.20;65.00;;;;;;4981435;28;20058;-48
2022/12/07 07:06:15;;;;;;;23.83;14.45;;;8.20;64.70;;;;;;4976556;28;20049;-51
2022/12/07 07:08:43;;;;;;;24.17;14.65;;;8.10;64.50;;;;;;4986345;28;20054;-48
2022/12/07 07:11:11;;;;;;;29.10;14.95;;;8.10;64.50;;;;;;4989096;28;20056;-48
2022/12/07 07:13:39;;;;;;;24.00;14.13;;;8.10;64.70;;;;;;4990495;28;20426;-52
2022/12/07 07:16:07;;;;;;;29.55;17.77;;;8.10;64.90;;;;;;4979029;28;20708;-47
2022/12/07 07:18:35;;;;;;;35.90;21.02;;;8.10;65.60;;;;;;4990398;28;20053;-48
2022/12/07 07:21:02;;;;;;;35.78;21.10;;;8.10;64.80;;;;;;4984637;28;20069;-49
2022/12/07 07:23:29;;;;;;;38.10;21.48;;;8.10;64.90;;;;;;4994312;28;20053;-49
2022/12/07 07:25:58;;;;;;;42.67;23.67;;;8.00;65.00;;;;;;4994826;28;20054;-48
2022/12/07 07:28:25;;;;;;;45.67;24.48;;;8.00;65.10;;;;;;4994999;28;20081;-49
2022/12/07 07:30:53;;;;;;;41.55;23.60;;;8.00;65.20;;;;;;4982544;28;20047;-49
2022/12/07 07:33:20;;;;;;;38.42;21.45;;;8.00;65.30;;;;;;4997745;28;20050;-48
2022/12/07 07:35:47;;;;;;;34.78;21.95;;;8.00;65.50;;;;;;4993512;28;20061;-50
2022/12/07 07:38:15;;;;;;;40.85;25.35;;;8.00;65.60;;;;;;4999190;28;20506;-47
2022/12/07 07:40:42;;;;;;;44.17;24.35;;;8.00;65.70;;;;;;4991926;28;20561;-50
2022/12/07 07:43:10;;;;;;;42.20;22.92;;;8.00;65.70;;;;;;4999963;28;20065;-50
2022/12/07 07:45:38;;;;;;;32.78;20.25;;;8.00;65.80;;;;;;5003123;28;20061;-45
2022/12/07 07:48:05;;;;;;;35.40;21.90;;;8.10;65.90;;;;;;4992822;28;20081;-47
2022/12/07 07:50:32;;;;;;;34.25;20.77;;;8.10;65.80;;;;;;4983229;28;20065;-48
2022/12/07 07:52:59;;;;;;;45.33;23.92;;;8.10;65.80;;;;;;4988398;28;20478;-44
2022/12/07 07:55:27;;;;;;;36.75;21.02;;;8.10;65.80;;;;;;4993304;28;20057;-43
2022/12/07 07:57:55;;;;;;;35.97;20.98;;;8.20;65.80;;;;;;4999788;28;20521;-48
2022/12/07 08:00:24;;;;;;;34.13;19.85;;;8.20;65.80;;;;;;4991142;28;20050;-47
2022/12/07 08:02:51;;;;;;;45.53;23.13;;;8.20;65.60;;;;;;4991693;28;20050;-50
2022/12/07 08:05:18;;;;;;;36.50;20.45;;;8.20;65.60;;;;;;5002596;28;20413;-50
2022/12/07 08:07:46;;;;;;;41.63;21.67;;;8.20;66.30;;;;;;4993046;28;20046;-49
2022/12/07 08:10:14;;;;;;;35.15;21.42;;;8.20;65.50;;;;;;4994081;28;20054;-50
2022/12/07 08:15:26;;;;;;;32.42;18.83;;;8.30;65.40;;;;;;4996276;28;20050;-43
2022/12/07 08:17:53;;;;;;;46.55;21.27;;;8.30;65.30;;;;;;5002400;28;20053;-47
2022/12/07 08:20:21;;;;;;;31.25;19.30;;;8.30;65.20;;;;;;4996045;28;20489;-45
2022/12/07 08:22:48;;;;;;;35.70;20.05;;;8.30;65.20;;;;;;4996613;28;20053;-48
2022/12/07 08:25:15;;;;;;;32.92;18.67;;;8.30;65.20;;;;;;4999389;28;20054;-50
2022/12/07 08:27:43;;;;;;;35.00;20.52;;;8.30;65.20;;;;;;4989262;28;20433;-52
2022/12/07 08:30:11;;;;;;;32.85;19.60;;;8.30;65.20;;;;;;4995501;28;20050;-49
2022/12/07 08:32:39;;;;;;;36.05;19.67;;;8.30;65.20;;;;;;4991119;28;20064;-51
2022/12/07 08:35:07;;;;;;;34.67;18.75;;;8.30;65.10;;;;;;4993952;28;20348;-46
2022/12/07 08:37:34;;;;;;;32.85;19.60;;;8.30;65.10;;;;;;4996994;28;20058;-44
2022/12/07 08:40:02;;;;;;;37.85;20.55;;;8.30;65.00;;;;;;5001719;28;20049;-48
2022/12/07 08:42:37;;;;;;;32.00;20.20;;;8.30;65.00;;;;;;4987042;28;20089;-51
2022/12/07 08:45:06;;;;;;;36.58;21.05;;;8.30;65.20;;;;;;4999456;28;20064;-48
2022/12/07 08:47:35;;;;;;;37.95;21.45;;;8.40;65.00;;;;;;4999697;28;20050;-49
2022/12/07 08:50:06;;;;;;;35.10;20.08;;;8.40;65.00;;;;;;4995561;28;20067;-50
2022/12/07 08:52:35;;;;;;;36.03;20.30;;;8.40;65.00;;;;;;4995119;28;20049;-49
2022/12/07 08:55:04;;;;;;;36.55;18.52;;;8.40;65.10;;;;;;4998906;28;20058;-44
2022/12/07 08:57:35;;;;;;;29.30;17.92;;;8.40;65.00;;;;;;4994980;28;20049;-44
2022/12/07 09:00:03;;;;;;;26.90;16.65;;;8.40;65.00;;;;;;5003395;28;21145;-43
2022/12/07 09:02:31;;;;;;;28.38;16.83;;;8.40;65.10;;;;;;5000665;28;20061;-48
2022/12/07 09:05:03;;;;;;;30.08;17.20;;;8.40;65.20;;;;;;5008939;28;20058;-46
2022/12/07 09:07:32;;;;;;;35.30;17.58;;;8.40;65.10;;;;;;4994231;28;20046;-47
2022/12/07 09:10:00;;;;;;;32.30;17.35;;;8.40;65.20;;;;;;4994365;28;20057;-46
2022/12/07 09:12:27;;;;;;;32.13;18.17;;;8.40;65.10;;;;;;4997440;28;20069;-48
2022/12/07 09:14:54;;;;;;;26.27;17.10;;;8.50;65.10;;;;;;5001649;28;20062;-45
2022/12/07 09:17:22;;;;;;;30.65;16.23;;;8.50;65.00;;;;;;4997663;28;20478;-43
2022/12/07 09:19:49;;;;;;;27.17;15.57;;;8.50;65.00;;;;;;5001580;28;20057;-48
2022/12/07 09:22:18;;;;;;;26.60;16.05;;;8.50;64.90;;;;;;4976221;28;20054;-52
2022/12/07 09:24:45;;;;;;;33.10;16.90;;;8.50;64.80;;;;;;5000969;28;20046;-49
2022/12/07 09:27:12;;;;;;;33.00;17.10;;;8.50;64.70;;;;;;5002563;28;20060;-47
2022/12/07 09:29:40;;;;;;;31.58;16.75;;;8.50;64.70;;;;;;5003708;28;20061;-50
2022/12/07 09:32:07;;;;;;;29.08;17.10;;;8.50;64.70;;;;;;4995539;28;20070;-47
2022/12/07 09:34:34;;;;;;;33.35;17.20;;;8.50;64.70;;;;;;5002309;28;20386;-46
2022/12/07 09:37:02;;;;;;;32.70;18.13;;;8.50;64.70;;;;;;4997494;28;20050;-47
2022/12/07 09:39:31;;;;;;;34.00;17.33;;;8.50;64.70;;;;;;4985635;28;20469;-45
2022/12/07 09:41:59;;;;;;;31.80;17.15;;;8.50;64.70;;;;;;4989184;28;20066;-48
2022/12/07 09:44:28;;;;;;;33.63;16.58;;;8.50;64.70;;;;;;4993967;28;20045;-48
2022/12/07 09:46:56;;;;;;;32.47;16.55;;;8.50;64.70;;;;;;4987551;28;20418;-47
2022/12/07 09:49:27;;;;;;;31.67;16.83;;;8.50;64.70;;;;;;5001012;28;20411;-51
2022/12/07 09:52:02;;;;;;;29.98;15.95;;;8.50;64.60;;;;;;4989939;28;20057;-49
2022/12/07 09:54:31;;;;;;;25.45;14.07;;;8.50;64.60;;;;;;4999719;28;20064;-45
2022/12/07 09:57:00;;;;;;;34.08;15.95;;;8.60;64.80;;;;;;5001445;28;20491;-48
2022/12/07 09:59:27;;;;;;;31.13;16.00;;;8.60;64.80;;;;;;4995093;28;20065;-49
2022/12/07 10:01:55;;;;;;;28.27;15.45;;;8.60;64.80;;;;;;4998837;28;20054;-47
2022/12/07 10:04:24;;;;;;;32.28;16.55;;;8.60;64.90;;;;;;4997825;28;20500;-45
2022/12/07 10:06:52;;;;;;;35.42;17.85;;;8.60;64.70;;;;;;5000922;28;20049;-48
2022/12/07 10:09:22;;;;;;;37.95;17.60;;;8.60;64.70;;;;;;4997731;28;20061;-44
2022/12/07 10:12:06;;;;;;;28.42;15.50;;;8.60;64.40;;;;;;4984621;28;20065;-46
2022/12/07 10:14:36;;;;;;;29.17;15.82;;;8.50;64.60;;;;;;5000909;28;20054;-47
2022/12/07 10:17:31;;;;;;;28.48;15.32;;;8.60;64.90;;;;;;4995176;28;20054;-47
2022/12/07 10:20:09;;;;;;;;;;;8.60;65.10;;;;;;4994492;28;20057;-48
2022/12/07 10:22:36;;;;;;;27.25;15.43;;;8.60;65.20;;;;;;4992663;28;19925;-46
2022/12/07 10:25:10;;;;;;;36.20;16.75;;;8.60;64.90;;;;;;4992663;28;20268;-48
2022/12/07 10:27:38;;;;;;;29.90;16.08;;;8.60;64.70;;;;;;5003019;28;20053;-46
2022/12/07 10:30:16;;;;;;;31.60;16.08;;;8.60;64.60;;;;;;4988955;28;20054;-47
2022/12/07 10:32:43;;;;;;;29.85;17.58;;;8.60;64.70;;;;;;4995704;28;20049;-47
2022/12/07 10:35:23;;;;;;;33.15;17.55;;;8.60;64.80;;;;;;4997950;28;20068;-51
2022/12/07 10:37:52;;;;;;;34.63;15.77;;;8.60;64.70;;;;;;4995205;28;20045;-47
2022/12/07 10:40:34;;;;;;;31.48;15.13;;;8.60;64.70;;;;;;4986953;28;20065;-47
2022/12/07 10:43:05;;;;;;;30.85;15.63;;;8.60;64.50;;;;;;4999533;28;20057;-47
2022/12/07 10:46:11;;;;;;;33.72;14.98;;;8.60;64.40;;;;;;4998512;28;20062;-50
2022/12/07 10:48:46;;;;;;;30.15;15.43;;;8.60;64.60;;;;;;5004708;28;20061;-49
2022/12/07 10:51:28;;;;;;;27.60;15.88;;;8.60;64.50;;;;;;4996176;28;20057;-47
2022/12/07 10:54:11;;;;;;;32.35;14.77;;;8.60;64.60;;;;;;4998590;28;20061;-46
2022/12/07 10:57:03;;;;;;;30.02;14.88;;;8.60;64.60;;;;;;5000888;28;20057;-50
2022/12/07 10:59:54;;;;;;;27.33;15.00;;;8.60;64.60;;;;;;4996663;28;20053;-48
2022/12/07 11:02:33;;;;;;;29.40;14.95;;;8.60;64.70;;;;;;4997274;28;20053;-47
2022/12/07 11:05:10;;;;;;;28.30;16.02;;;8.60;64.70;;;;;;4992631;28;20382;-49
2022/12/07 11:07:48;;;;;;;24.42;13.55;;;8.70;64.70;;;;;;4994272;28;20046;-49
2022/12/07 11:10:20;;;;;;;25.52;13.77;;;8.60;64.70;;;;;;4980442;28;20073;-48
2022/12/07 11:13:09;;;;;;;24.60;14.40;;;8.70;64.90;;;;;;4982249;28;20054;-46
2022/12/07 11:15:52;;;;;;;29.48;12.80;;;8.70;64.90;;;;;;5000960;28;20482;-44
2022/12/07 11:18:25;;;;;;;21.00;12.43;;;8.70;64.80;;;;;;5002732;28;20058;-47
2022/12/07 11:20:57;;;;;;;26.80;12.80;;;8.70;64.80;;;;;;4997839;28;20058;-46
2022/12/07 11:23:37;;;;;;;30.17;12.88;;;8.80;65.20;;;;;;4988591;28;20050;-46
2022/12/07 11:26:14;;;;;;;30.52;13.15;;;8.80;65.90;;;;;;4995536;28;20054;-50
2022/12/07 11:28:59;;;;;;;25.25;12.30;;;8.80;65.10;;;;;;5000920;28;20425;-51
2022/12/07 11:31:35;;;;;;;20.95;12.35;;;8.80;65.00;;;;;;4998036;28;20060;-47
2022/12/07 11:34:11;;;;;;;18.67;10.73;;;8.90;65.10;;;;;;5002643;28;20058;-51
2022/12/07 11:36:42;;;;;;;24.25;11.45;;;8.90;65.20;;;;;;4996688;28;20544;-47
2022/12/07 11:39:23;;;;;;;26.77;11.50;;;8.90;65.20;;;;;;4999924;28;20049;-46
2022/12/07 11:41:56;;;;;;;20.85;10.43;;;8.90;64.00;;;;;;4995198;28;20060;-48
2022/12/07 11:44:32;;;;;;;20.58;10.55;;;8.90;64.00;;;;;;4995072;28;20050;-51
2022/12/07 11:47:07;;;;;;;20.30;9.35;;;8.80;63.80;;;;;;4995767;28;20058;-46
2022/12/07 11:49:43;;;;;;;20.23;8.77;;;8.90;63.90;;;;;;4999538;28;20046;-46
2022/12/07 11:52:19;;;;;;;17.02;9.07;;;8.90;63.80;;;;;;4983758;28;20049;-47
2022/12/07 11:54:48;;;;;;;16.17;8.43;;;8.90;63.70;;;;;;4986554;28;20054;-47
2022/12/07 11:57:21;;;;;;;21.02;9.00;;;8.90;63.90;;;;;;4998570;28;20050;-48
2022/12/07 11:59:54;;;;;;;19.65;8.65;;;8.90;64.10;;;;;;4994351;28;20050;-47
2022/12/07 12:02:27;;;;;;;18.08;9.02;;;8.90;64.20;;;;;;4997241;28;20074;-48
2022/12/07 12:05:00;;;;;;;19.70;8.45;;;8.90;64.30;;;;;;5001681;28;20064;-50
2022/12/07 12:07:29;;;;;;;18.52;9.05;;;9.00;64.10;;;;;;5000875;28;20057;-50
2022/12/07 12:10:02;;;;;;;19.92;9.13;;;9.00;64.10;;;;;;5000997;28;20056;-47
2022/12/07 12:12:53;;;;;;;19.38;7.90;;;9.00;64.00;;;;;;4993972;28;20504;-47
2022/12/07 12:15:43;;;;;;;19.10;7.45;;;9.10;63.90;;;;;;5002823;28;20069;-49
2022/12/07 12:18:29;;;;;;;18.70;7.18;;;9.10;63.80;;;;;;5002495;28;20056;-47
2022/12/07 12:21:01;;;;;;;14.50;6.10;;;9.10;62.90;;;;;;4990226;28;20054;-47
2022/12/07 12:23:36;;;;;;;21.88;6.90;;;9.10;62.90;;;;;;5000062;28;20053;-51
2022/12/07 12:26:07;;;;;;;14.75;6.28;;;9.10;62.70;;;;;;5000796;28;20057;-46
2022/12/07 12:28:40;;;;;;;13.43;6.35;;;9.10;62.70;;;;;;5002777;28;20061;-47
2022/12/07 12:31:14;;;;;;;11.23;5.57;;;9.10;62.60;;;;;;4999932;28;20053;-48
2022/12/07 12:33:46;;;;;;;15.38;5.70;;;9.10;62.70;;;;;;5000386;28;20053;-49
2022/12/07 12:36:24;;;;;;;23.92;6.25;;;9.10;62.80;;;;;;5003423;28;20078;-52
2022/12/07 12:39:07;;;;;;;16.13;6.50;;;9.10;62.70;;;;;;5001140;28;20057;-46
2022/12/07 12:42:09;;;;;;;12.50;5.78;;;9.10;62.60;;;;;;5000108;28;20058;-50
2022/12/07 12:45:18;;;;;;;13.35;4.80;;;9.00;62.30;;;;;;5004143;28;20053;-47
2022/12/07 12:47:56;;;;;;;13.13;3.65;;;9.00;62.40;;;;;;5002885;28;20054;-47
2022/12/07 12:50:28;;;;;;;6.28;1.67;;;8.90;62.00;;;;;;4992332;28;20562;-46
2022/12/07 12:53:15;;;;;;;9.65;2.20;;;8.90;61.50;;;;;;5001611;28;20050;-44
2022/12/07 12:56:21;;;;;;;8.68;1.83;;;8.90;60.90;;;;;;5005671;28;20062;-50
2022/12/07 12:58:48;;;;;;;15.85;3.15;;;8.80;60.40;;;;;;5002382;28;20049;-44
2022/12/07 13:01:47;;;;;;;14.50;3.83;;;8.70;60.20;;;;;;4999266;28;20054;-50
2022/12/07 13:04:50;;;;;;;11.05;4.00;;;8.60;60.20;;;;;;5004922;28;20061;-45
2022/12/07 13:07:52;;;;;;;13.85;4.75;;;8.50;60.60;;;;;;5003264;28;20054;-44